sensor_id;sensor_type;location;lat;lon;timestamp;pressure;altitude;pressure_sealevel;temperature;humidity
46724;BME280;32463;48.298;11.620;2023-07-22T00:01:22;96314.63;;;13.61;100.00
46724;BME280;32463;48.298;11.620;2023-07-22T00:03:49;96310.56;;;13.58;100.00
46724;BME280;32463;48.298;11.620;2023-07-22T00:06:15;96320.19;;;13.58;100.00
46724;BME280;32463;48.298;11.620;2023-07-22T00:08:41;96319.53;;;13.56;100.00
46724;BME280;32463;48.298;11.620;2023-07-22T00:11:08;96312.63;;;13.63;100.00
46724;BME280;32463;48.298;11.620;2023-07-22T00:13:34;96318.56;;;13.57;100.00
46724;BME280;32463;48.298;11.620;2023-07-22T00:16:01;96322.16;;;13.56;100.00
46724;BME280;32463;48.298;11.620;2023-07-22T00:18:29;96322.84;;;13.49;100.00
46724;BME280;32463;48.298;11.620;2023-07-22T00:20:56;96326.19;;;13.43;100.00
46724;BME280;32463;48.298;11.620;2023-07-22T00:23:23;96311.09;;;13.39;100.00
46724;BME280;32463;48.298;11.620;2023-07-22T00:25:51;96318.00;;;13.46;100.00
46724;BME280;32463;48.298;11.620;2023-07-22T00:28:17;96321.84;;;13.36;100.00
46724;BME280;32463;48.298;11.620;2023-07-22T00:30:44;96318.38;;;13.43;100.00
46724;BME280;32463;48.298;11.620;2023-07-22T00:33:10;96306.16;;;13.44;100.00
46724;BME280;32463;48.298;11.620;2023-07-22T00:35:37;96310.91;;;13.40;100.00
46724;BME280;32463;48.298;11.620;2023-07-22T00:38:04;96308.94;;;13.42;100.00
46724;BME280;32463;48.298;11.620;2023-07-22T00:40:30;96310.56;;;13.43;100.00
46724;BME280;32463;48.298;11.620;2023-07-22T00:42:58;96296.78;;;13.35;100.00
46724;BME280;32463;48.298;11.620;2023-07-22T00:45:25;96307.38;;;13.33;100.00
46724;BME280;32463;48.298;11.620;2023-07-22T00:47:51;96296.78;;;13.35;100.00
46724;BME280;32463;48.298;11.620;2023-07-22T00:50:18;96296.50;;;13.30;100.00
46724;BME280;32463;48.298;11.620;2023-07-22T00:52:45;96287.25;;;13.27;100.00
46724;BME280;32463;48.298;11.620;2023-07-22T00:55:11;96289.69;;;13.29;100.00
46724;BME280;32463;48.298;11.620;2023-07-22T00:57:38;96292.81;;;13.24;100.00
46724;BME280;32463;48.298;11.620;2023-07-22T01:00:05;96290.84;;;13.26;100.00
46724;BME280;32463;48.298;11.620;2023-07-22T01:02:33;96293.16;;;13.21;100.00
46724;BME280;32463;48.298;11.620;2023-07-22T01:04:59;96293.28;;;13.05;100.00
46724;BME280;32463;48.298;11.620;2023-07-22T01:07:27;96284.47;;;13.06;100.00
46724;BME280;32463;48.298;11.620;2023-07-22T01:09:56;96280.78;;;13.00;100.00
46724;BME280;32463;48.298;11.620;2023-07-22T01:12:23;96280.66;;;12.94;100.00
46724;BME280;32463;48.298;11.620;2023-07-22T01:14:50;96275.16;;;12.89;100.00
46724;BME280;32463;48.298;11.620;2023-07-22T01:17:17;96276.88;;;12.81;100.00
46724;BME280;32463;48.298;11.620;2023-07-22T01:19:44;96273.50;;;12.73;100.00
46724;BME280;32463;48.298;11.620;2023-07-22T01:22:13;96275.63;;;12.69;100.00
46724;BME280;32463;48.298;11.620;2023-07-22T01:24:39;96272.22;;;12.69;100.00
46724;BME280;32463;48.298;11.620;2023-07-22T01:27:08;96273.38;;;12.66;100.00
46724;BME280;32463;48.298;11.620;2023-07-22T01:29:35;96280.84;;;12.69;100.00
46724;BME280;32463;48.298;11.620;2023-07-22T01:32:03;96282.81;;;12.67;100.00
46724;BME280;32463;48.298;11.620;2023-07-22T01:34:31;96276.97;;;12.65;100.00
46724;BME280;32463;48.298;11.620;2023-07-22T01:36:57;96283.31;;;12.63;100.00
46724;BME280;32463;48.298;11.620;2023-07-22T01:39:25;96282.47;;;12.70;100.00
46724;BME280;32463;48.298;11.620;2023-07-22T01:41:52;96276.50;;;12.62;100.00
46724;BME280;32463;48.298;11.620;2023-07-22T01:44:19;96288.69;;;12.61;100.00
46724;BME280;32463;48.298;11.620;2023-07-22T01:46:45;96280.53;;;12.64;100.00
46724;BME280;32463;48.298;11.620;2023-07-22T01:49:12;96283.16;;;12.64;100.00
46724;BME280;32463;48.298;11.620;2023-07-22T01:51:39;96291.06;;;12.71;100.00
46724;BME280;32463;48.298;11.620;2023-07-22T01:54:07;96285.75;;;12.64;100.00
46724;BME280;32463;48.298;11.620;2023-07-22T01:56:34;96287.66;;;12.70;100.00
46724;BME280;32463;48.298;11.620;2023-07-22T01:59:02;96286.84;;;12.70;100.00
46724;BME280;32463;48.298;11.620;2023-07-22T02:01:28;96291.88;;;12.71;100.00
46724;BME280;32463;48.298;11.620;2023-07-22T02:03:55;96297.09;;;12.71;100.00
46724;BME280;32463;48.298;11.620;2023-07-22T02:06:22;96302.88;;;12.81;100.00
46724;BME280;32463;48.298;11.620;2023-07-22T02:08:49;96299.91;;;12.85;100.00
46724;BME280;32463;48.298;11.620;2023-07-22T02:11:17;96295.72;;;12.84;100.00
46724;BME280;32463;48.298;11.620;2023-07-22T02:13:45;96299.56;;;12.88;100.00
46724;BME280;32463;48.298;11.620;2023-07-22T02:16:11;96296.63;;;12.91;100.00
46724;BME280;32463;48.298;11.620;2023-07-22T02:18:38;96296.63;;;12.91;100.00
46724;BME280;32463;48.298;11.620;2023-07-22T02:21:04;96299.56;;;12.88;100.00
46724;BME280;32463;48.298;11.620;2023-07-22T02:23:31;96307.03;;;12.91;100.00
46724;BME280;32463;48.298;11.620;2023-07-22T02:25:57;96303.44;;;12.92;100.00
46724;BME280;32463;48.298;11.620;2023-07-22T02:28:24;96298.25;;;12.92;100.00
46724;BME280;32463;48.298;11.620;2023-07-22T02:30:52;96297.88;;;12.95;100.00
46724;BME280;32463;48.298;11.620;2023-07-22T02:33:20;96297.59;;;12.90;100.00
46724;BME280;32463;48.298;11.620;2023-07-22T02:35:47;96300.53;;;12.87;100.00
46724;BME280;32463;48.298;11.620;2023-07-22T02:38:14;96295.47;;;12.93;100.00
46724;BME280;32463;48.298;11.620;2023-07-22T02:40:41;96299.72;;;12.86;100.00
46724;BME280;32463;48.298;11.620;2023-07-22T02:43:07;96287.97;;;12.75;100.00
46724;BME280;32463;48.298;11.620;2023-07-22T02:45:34;96292.19;;;12.76;100.00
46724;BME280;32463;48.298;11.620;2023-07-22T02:48:01;96294.47;;;12.71;100.00
46724;BME280;32463;48.298;11.620;2023-07-22T02:50:27;96300.53;;;12.64;100.00
46724;BME280;32463;48.298;11.620;2023-07-22T02:52:54;96295.47;;;12.70;100.00
46724;BME280;32463;48.298;11.620;2023-07-22T02:55:21;96307.09;;;12.82;100.00
46724;BME280;32463;48.298;11.620;2023-07-22T02:57:48;96305.00;;;12.78;100.00
46724;BME280;32463;48.298;11.620;2023-07-22T03:00:16;96307.50;;;12.71;100.00
46724;BME280;32463;48.298;11.620;2023-07-22T03:02:52;96311.41;;;12.67;100.00
46724;BME280;32463;48.298;11.620;2023-07-22T03:05:19;96309.78;;;12.66;100.00
46724;BME280;32463;48.298;11.620;2023-07-22T03:07:46;96320.03;;;12.68;100.00
46724;BME280;32463;48.298;11.620;2023-07-22T03:10:12;96317.75;;;12.65;100.00
46724;BME280;32463;48.298;11.620;2023-07-22T03:12:39;96311.38;;;12.75;100.00
46724;BME280;32463;48.298;11.620;2023-07-22T03:15:06;96313.03;;;12.68;100.00
46724;BME280;32463;48.298;11.620;2023-07-22T03:17:35;96316.47;;;12.61;100.00
46724;BME280;32463;48.298;11.620;2023-07-22T03:20:02;96315.69;;;12.60;100.00
46724;BME280;32463;48.298;11.620;2023-07-22T03:22:33;96318.22;;;12.68;100.00
46724;BME280;32463;48.298;11.620;2023-07-22T03:25:00;96316.63;;;12.67;100.00
46724;BME280;32463;48.298;11.620;2023-07-22T03:27:27;96324.72;;;12.72;100.00
46724;BME280;32463;48.298;11.620;2023-07-22T03:29:55;96320.78;;;12.76;100.00
46724;BME280;32463;48.298;11.620;2023-07-22T03:32:22;96314.94;;;12.74;100.00
46724;BME280;32463;48.298;11.620;2023-07-22T03:34:48;96318.56;;;12.65;100.00
46724;BME280;32463;48.298;11.620;2023-07-22T03:37:15;96318.91;;;12.62;100.00
46724;BME280;32463;48.298;11.620;2023-07-22T03:39:42;96316.00;;;12.57;100.00
46724;BME280;32463;48.298;11.620;2023-07-22T03:42:08;96312.44;;;12.58;100.00
46724;BME280;32463;48.298;11.620;2023-07-22T03:44:35;96306.50;;;12.50;100.00
46724;BME280;32463;48.298;11.620;2023-07-22T03:47:02;96314.00;;;12.44;100.00
46724;BME280;32463;48.298;11.620;2023-07-22T03:49:28;96328.47;;;12.39;100.00
46724;BME280;32463;48.298;11.620;2023-07-22T03:51:55;96344.06;;;12.39;100.00
46724;BME280;32463;48.298;11.620;2023-07-22T03:54:21;96336.78;;;12.34;100.00
46724;BME280;32463;48.298;11.620;2023-07-22T03:56:48;96338.56;;;12.34;100.00
46724;BME280;32463;48.298;11.620;2023-07-22T03:59:14;96338.25;;;12.29;100.00
46724;BME280;32463;48.298;11.620;2023-07-22T04:01:41;96335.31;;;12.32;100.00
46724;BME280;32463;48.298;11.620;2023-07-22T04:04:08;96343.13;;;12.32;100.00
46724;BME280;32463;48.298;11.620;2023-07-22T04:06:35;96339.53;;;12.33;100.00
46724;BME280;32463;48.298;11.620;2023-07-22T04:09:01;96341.16;;;12.34;100.00
46724;BME280;32463;48.298;11.620;2023-07-22T04:11:27;96339.22;;;12.36;100.00
46724;BME280;32463;48.298;11.620;2023-07-22T04:13:54;96331.56;;;12.34;100.00
46724;BME280;32463;48.298;11.620;2023-07-22T04:16:20;96338.06;;;12.38;100.00
46724;BME280;32463;48.298;11.620;2023-07-22T04:18:47;96341.78;;;12.44;100.00
46724;BME280;32463;48.298;11.620;2023-07-22T04:21:13;96351.16;;;12.53;100.00
46724;BME280;32463;48.298;11.620;2023-07-22T04:23:39;96354.09;;;12.50;100.00
46724;BME280;32463;48.298;11.620;2023-07-22T04:26:06;96351.34;;;12.52;100.00
46724;BME280;32463;48.298;11.620;2023-07-22T04:28:34;96360.38;;;12.56;100.00
46724;BME280;32463;48.298;11.620;2023-07-22T04:31:00;96355.31;;;12.62;100.00
46724;BME280;32463;48.298;11.620;2023-07-22T04:33:27;96360.78;;;12.75;100.00
46724;BME280;32463;48.298;11.620;2023-07-22T04:35:57;96361.66;;;12.91;100.00
46724;BME280;32463;48.298;11.620;2023-07-22T04:38:24;96360.94;;;13.05;100.00
46724;BME280;32463;48.298;11.620;2023-07-22T04:40:51;96358.75;;;13.17;100.00
46724;BME280;32463;48.298;11.620;2023-07-22T04:43:17;96358.19;;;13.29;100.00
46724;BME280;32463;48.298;11.620;2023-07-22T04:45:45;96360.94;;;13.51;100.00
46724;BME280;32463;48.298;11.620;2023-07-22T04:48:14;96358.13;;;13.75;100.00
46724;BME280;32463;48.298;11.620;2023-07-22T04:50:42;96353.53;;;13.92;100.00
46724;BME280;32463;48.298;11.620;2023-07-22T04:53:10;96344.66;;;14.15;100.00
46724;BME280;32463;48.298;11.620;2023-07-22T04:55:39;96341.25;;;14.30;100.00
46724;BME280;32463;48.298;11.620;2023-07-22T04:58:06;96343.41;;;14.41;100.00
46724;BME280;32463;48.298;11.620;2023-07-22T05:00:33;96348.44;;;14.57;100.00
46724;BME280;32463;48.298;11.620;2023-07-22T05:03:00;96338.50;;;14.67;100.00
46724;BME280;32463;48.298;11.620;2023-07-22T05:05:26;96330.91;;;14.72;100.00
46724;BME280;32463;48.298;11.620;2023-07-22T05:07:53;96341.94;;;14.89;100.00
46724;BME280;32463;48.298;11.620;2023-07-22T05:10:19;96342.88;;;15.03;100.00
46724;BME280;32463;48.298;11.620;2023-07-22T05:12:46;96345.38;;;15.11;100.00
46724;BME280;32463;48.298;11.620;2023-07-22T05:15:13;96355.09;;;15.17;100.00
46724;BME280;32463;48.298;11.620;2023-07-22T05:17:40;96352.50;;;15.45;100.00
46724;BME280;32463;48.298;11.620;2023-07-22T05:20:07;96346.91;;;15.48;100.00
46724;BME280;32463;48.298;11.620;2023-07-22T05:22:36;96353.06;;;15.62;100.00
46724;BME280;32463;48.298;11.620;2023-07-22T05:25:04;96358.03;;;15.78;100.00
46724;BME280;32463;48.298;11.620;2023-07-22T05:27:32;96362.50;;;15.84;100.00
46724;BME280;32463;48.298;11.620;2023-07-22T05:29:58;96355.78;;;15.75;100.00
46724;BME280;32463;48.298;11.620;2023-07-22T05:32:25;96357.16;;;15.71;100.00
46724;BME280;32463;48.298;11.620;2023-07-22T05:34:52;96354.56;;;15.71;100.00
46724;BME280;32463;48.298;11.620;2023-07-22T05:37:18;96361.53;;;15.64;100.00
46724;BME280;32463;48.298;11.620;2023-07-22T05:39:45;96366.44;;;15.73;100.00
46724;BME280;32463;48.298;11.620;2023-07-22T05:42:11;96361.72;;;15.90;100.00
46724;BME280;32463;48.298;11.620;2023-07-22T05:44:38;96360.28;;;16.15;100.00
46724;BME280;32463;48.298;11.620;2023-07-22T05:47:04;96363.59;;;16.31;100.00
46724;BME280;32463;48.298;11.620;2023-07-22T05:49:31;96359.66;;;16.48;100.00
46724;BME280;32463;48.298;11.620;2023-07-22T05:51:57;96366.03;;;16.73;100.00
46724;BME280;32463;48.298;11.620;2023-07-22T05:54:24;96360.59;;;16.81;100.00
46724;BME280;32463;48.298;11.620;2023-07-22T05:56:50;96364.75;;;17.30;100.00
46724;BME280;32463;48.298;11.620;2023-07-22T05:59:17;96354.72;;;17.93;100.00
46724;BME280;32463;48.298;11.620;2023-07-22T06:01:43;96362.78;;;17.85;100.00
46724;BME280;32463;48.298;11.620;2023-07-22T06:04:10;96354.50;;;18.01;100.00
46724;BME280;32463;48.298;11.620;2023-07-22T06:06:36;96349.97;;;18.35;100.00
46724;BME280;32463;48.298;11.620;2023-07-22T06:09:03;96360.16;;;18.76;100.00
46724;BME280;32463;48.298;11.620;2023-07-22T06:11:30;96352.88;;;18.71;100.00
46724;BME280;32463;48.298;11.620;2023-07-22T06:13:56;96353.91;;;18.70;100.00
46724;BME280;32463;48.298;11.620;2023-07-22T06:16:23;96359.44;;;18.42;100.00
46724;BME280;32463;48.298;11.620;2023-07-22T06:18:49;96359.84;;;18.39;100.00
46724;BME280;32463;48.298;11.620;2023-07-22T06:21:16;96362.72;;;18.25;100.00
46724;BME280;32463;48.298;11.620;2023-07-22T06:23:42;96368.38;;;18.08;100.00
46724;BME280;32463;48.298;11.620;2023-07-22T06:26:09;96365.00;;;18.01;100.00
46724;BME280;32463;48.298;11.620;2023-07-22T06:28:35;96368.03;;;17.85;100.00
46724;BME280;32463;48.298;11.620;2023-07-22T06:31:02;96358.34;;;17.86;100.00
46724;BME280;32463;48.298;11.620;2023-07-22T06:33:28;96366.78;;;18.14;100.00
46724;BME280;32463;48.298;11.620;2023-07-22T06:35:55;96372.00;;;18.34;100.00
46724;BME280;32463;48.298;11.620;2023-07-22T06:38:21;96371.56;;;18.37;100.00
46724;BME280;32463;48.298;11.620;2023-07-22T06:40:48;96368.78;;;18.32;100.00
46724;BME280;32463;48.298;11.620;2023-07-22T06:43:15;96370.84;;;18.03;100.00
46724;BME280;32463;48.298;11.620;2023-07-22T06:45:42;96372.44;;;18.11;100.00
46724;BME280;32463;48.298;11.620;2023-07-22T06:48:08;96374.63;;;18.21;100.00
46724;BME280;32463;48.298;11.620;2023-07-22T06:50:35;96383.06;;;18.42;100.00
46724;BME280;32463;48.298;11.620;2023-07-22T06:53:01;96383.44;;;18.46;100.00
46724;BME280;32463;48.298;11.620;2023-07-22T06:55:29;96387.59;;;18.87;100.00
46724;BME280;32463;48.298;11.620;2023-07-22T06:57:56;96385.66;;;18.62;100.00
46724;BME280;32463;48.298;11.620;2023-07-22T07:00:22;96384.25;;;18.46;100.00
46724;BME280;32463;48.298;11.620;2023-07-22T07:02:49;96387.31;;;18.37;100.00
46724;BME280;32463;48.298;11.620;2023-07-22T07:05:16;96389.91;;;18.43;100.00
46724;BME280;32463;48.298;11.620;2023-07-22T07:07:42;96377.19;;;18.47;100.00
46724;BME280;32463;48.298;11.620;2023-07-22T07:10:09;96384.06;;;18.61;100.00
46724;BME280;32463;48.298;11.620;2023-07-22T07:12:36;96386.31;;;18.96;100.00
46724;BME280;32463;48.298;11.620;2023-07-22T07:15:02;96378.91;;;18.86;97.93
46724;BME280;32463;48.298;11.620;2023-07-22T07:17:29;96384.66;;;19.01;94.72
46724;BME280;32463;48.298;11.620;2023-07-22T07:19:55;96389.72;;;19.03;96.81
46724;BME280;32463;48.298;11.620;2023-07-22T07:22:22;96393.97;;;19.04;94.62
46724;BME280;32463;48.298;11.620;2023-07-22T07:24:48;96384.47;;;19.34;90.76
46724;BME280;32463;48.298;11.620;2023-07-22T07:27:14;96392.75;;;19.38;89.81
46724;BME280;32463;48.298;11.620;2023-07-22T07:29:41;96393.22;;;19.60;88.09
46724;BME280;32463;48.298;11.620;2023-07-22T07:32:07;96387.03;;;19.79;84.95
46724;BME280;32463;48.298;11.620;2023-07-22T07:34:34;96390.78;;;19.90;83.24
46724;BME280;32463;48.298;11.620;2023-07-22T07:37:00;96388.69;;;19.73;79.46
46724;BME280;32463;48.298;11.620;2023-07-22T07:39:27;96385.38;;;20.28;75.58
46724;BME280;32463;48.298;11.620;2023-07-22T07:41:54;96385.53;;;20.51;71.08
46724;BME280;32463;48.298;11.620;2023-07-22T07:44:20;96383.22;;;20.43;70.21
46724;BME280;32463;48.298;11.620;2023-07-22T07:46:47;96386.72;;;20.55;68.53
46724;BME280;32463;48.298;11.620;2023-07-22T07:49:13;96386.97;;;20.29;69.43
46724;BME280;32463;48.298;11.620;2023-07-22T07:51:40;96387.19;;;20.27;72.39
46724;BME280;32463;48.298;11.620;2023-07-22T07:54:07;96380.84;;;20.35;73.38
46724;BME280;32463;48.298;11.620;2023-07-22T07:56:34;96377.63;;;20.33;74.18
46724;BME280;32463;48.298;11.620;2023-07-22T07:59:00;96384.69;;;20.57;72.37
46724;BME280;32463;48.298;11.620;2023-07-22T08:01:27;96383.34;;;20.84;66.99
46724;BME280;32463;48.298;11.620;2023-07-22T08:03:54;96381.13;;;20.81;64.16
46724;BME280;32463;48.298;11.620;2023-07-22T08:06:20;96377.91;;;20.79;63.36
46724;BME280;32463;48.298;11.620;2023-07-22T08:08:47;96383.13;;;20.86;64.19
46724;BME280;32463;48.298;11.620;2023-07-22T08:11:14;96376.88;;;20.99;62.92
46724;BME280;32463;48.298;11.620;2023-07-22T08:13:42;96380.38;;;21.41;62.59
46724;BME280;32463;48.298;11.620;2023-07-22T08:16:11;96380.56;;;21.81;58.21
46724;BME280;32463;48.298;11.620;2023-07-22T08:18:38;96382.88;;;21.89;55.73
46724;BME280;32463;48.298;11.620;2023-07-22T08:21:06;96382.34;;;21.45;53.78
46724;BME280;32463;48.298;11.620;2023-07-22T08:23:33;96384.13;;;21.63;54.23
46724;BME280;32463;48.298;11.620;2023-07-22T08:26:00;96382.72;;;21.72;53.62
46724;BME280;32463;48.298;11.620;2023-07-22T08:28:27;96382.84;;;21.66;53.26
46724;BME280;32463;48.298;11.620;2023-07-22T08:30:56;96376.47;;;22.08;52.30
46724;BME280;32463;48.298;11.620;2023-07-22T08:33:24;96383.38;;;22.09;50.99
46724;BME280;32463;48.298;11.620;2023-07-22T08:35:51;96383.84;;;22.30;51.33
46724;BME280;32463;48.298;11.620;2023-07-22T08:38:18;96379.91;;;22.44;50.29
46724;BME280;32463;48.298;11.620;2023-07-22T08:40:48;96379.22;;;22.60;50.10
46724;BME280;32463;48.298;11.620;2023-07-22T08:43:15;96371.81;;;22.86;47.61
46724;BME280;32463;48.298;11.620;2023-07-22T08:45:43;96376.41;;;23.64;46.62
46724;BME280;32463;48.298;11.620;2023-07-22T08:48:10;96377.75;;;24.16;44.86
46724;BME280;32463;48.298;11.620;2023-07-22T08:50:59;96378.66;;;24.05;44.98
46724;BME280;32463;48.298;11.620;2023-07-22T08:53:26;96373.72;;;24.91;42.68
46724;BME280;32463;48.298;11.620;2023-07-22T08:55:53;96369.19;;;25.94;40.27
46724;BME280;32463;48.298;11.620;2023-07-22T08:58:21;96369.63;;;26.23;39.48
46724;BME280;32463;48.298;11.620;2023-07-22T09:00:48;96363.94;;;26.09;40.31
46724;BME280;32463;48.298;11.620;2023-07-22T09:03:16;96378.53;;;25.43;41.93
46724;BME280;32463;48.298;11.620;2023-07-22T09:05:43;96366.53;;;25.35;41.61
46724;BME280;32463;48.298;11.620;2023-07-22T09:08:11;96379.38;;;25.48;41.65
46724;BME280;32463;48.298;11.620;2023-07-22T09:10:38;96375.78;;;25.06;41.07
46724;BME280;32463;48.298;11.620;2023-07-22T09:13:05;96373.53;;;24.54;41.46
46724;BME280;32463;48.298;11.620;2023-07-22T09:15:35;96368.03;;;25.85;39.30
46724;BME280;32463;48.298;11.620;2023-07-22T09:18:03;96356.78;;;26.52;38.44
46724;BME280;32463;48.298;11.620;2023-07-22T09:20:30;96360.66;;;26.81;37.58
46724;BME280;32463;48.298;11.620;2023-07-22T09:22:57;96363.19;;;26.56;37.49
46724;BME280;32463;48.298;11.620;2023-07-22T09:25:25;96365.94;;;26.76;37.57
46724;BME280;32463;48.298;11.620;2023-07-22T09:27:56;96351.13;;;26.96;38.07
46724;BME280;32463;48.298;11.620;2023-07-22T09:30:37;96360.06;;;27.72;37.16
46724;BME280;32463;48.298;11.620;2023-07-22T09:33:07;96361.00;;;27.05;38.09
46724;BME280;32463;48.298;11.620;2023-07-22T09:35:45;96358.69;;;27.49;36.69
46724;BME280;32463;48.298;11.620;2023-07-22T09:38:12;96351.66;;;28.65;35.28
46724;BME280;32463;48.298;11.620;2023-07-22T09:40:41;96351.59;;;28.86;34.46
46724;BME280;32463;48.298;11.620;2023-07-22T09:43:10;96357.19;;;28.79;35.00
46724;BME280;32463;48.298;11.620;2023-07-22T09:45:37;96351.50;;;28.31;34.67
46724;BME280;32463;48.298;11.620;2023-07-22T09:48:04;96351.47;;;29.11;34.19
46724;BME280;32463;48.298;11.620;2023-07-22T09:50:31;96346.38;;;29.09;32.91
46724;BME280;32463;48.298;11.620;2023-07-22T09:52:59;96335.84;;;29.33;32.80
46724;BME280;32463;48.298;11.620;2023-07-22T09:55:28;96348.72;;;29.99;31.66
46724;BME280;32463;48.298;11.620;2023-07-22T09:57:57;96352.63;;;29.44;31.97
46724;BME280;32463;48.298;11.620;2023-07-22T10:00:27;96343.22;;;29.52;31.88
46724;BME280;32463;48.298;11.620;2023-07-22T10:02:57;96337.63;;;29.82;31.01
46724;BME280;32463;48.298;11.620;2023-07-22T10:05:25;96345.94;;;30.62;30.70
46724;BME280;32463;48.298;11.620;2023-07-22T10:10:31;96329.53;;;30.45;29.91
46724;BME280;32463;48.298;11.620;2023-07-22T10:12:58;96335.47;;;29.06;31.80
46724;BME280;32463;48.298;11.620;2023-07-22T10:15:28;96334.03;;;28.69;32.67
46724;BME280;32463;48.298;11.620;2023-07-22T10:17:55;96329.91;;;28.28;32.77
46724;BME280;32463;48.298;11.620;2023-07-22T10:20:24;96328.22;;;28.47;32.65
46724;BME280;32463;48.298;11.620;2023-07-22T10:22:50;96333.00;;;29.14;31.84
46724;BME280;32463;48.298;11.620;2023-07-22T10:25:19;96320.56;;;28.35;32.74
46724;BME280;32463;48.298;11.620;2023-07-22T10:27:47;96323.31;;;28.74;31.91
46724;BME280;32463;48.298;11.620;2023-07-22T10:30:16;96326.16;;;28.18;32.68
46724;BME280;32463;48.298;11.620;2023-07-22T10:32:49;96314.47;;;27.18;34.18
46724;BME280;32463;48.298;11.620;2023-07-22T10:35:41;96316.88;;;27.45;34.57
46724;BME280;32463;48.298;11.620;2023-07-22T10:38:13;96318.16;;;29.37;31.80
46724;BME280;32463;48.298;11.620;2023-07-22T10:40:50;96312.78;;;28.44;32.16
46724;BME280;32463;48.298;11.620;2023-07-22T10:43:17;96312.63;;;28.85;32.08
46724;BME280;32463;48.298;11.620;2023-07-22T10:45:55;96304.31;;;28.32;33.02
46724;BME280;32463;48.298;11.620;2023-07-22T10:48:26;96316.84;;;29.01;32.01
46724;BME280;32463;48.298;11.620;2023-07-22T10:50:57;96310.63;;;30.60;29.44
46724;BME280;32463;48.298;11.620;2023-07-22T11:04:10;96300.16;;;31.76;27.37
46724;BME280;32463;48.298;11.620;2023-07-22T11:06:59;96298.38;;;31.72;27.86
46724;BME280;32463;48.298;11.620;2023-07-22T11:12:03;96293.78;;;30.36;29.46
46724;BME280;32463;48.298;11.620;2023-07-22T11:14:47;96284.78;;;30.74;28.32
46724;BME280;32463;48.298;11.620;2023-07-22T11:17:14;96284.44;;;31.00;27.73
46724;BME280;32463;48.298;11.620;2023-07-22T11:19:41;96275.63;;;30.33;27.83
46724;BME280;32463;48.298;11.620;2023-07-22T11:22:07;96280.81;;;30.00;28.61
46724;BME280;32463;48.298;11.620;2023-07-22T11:24:35;96285.06;;;30.92;26.99
46724;BME280;32463;48.298;11.620;2023-07-22T11:27:08;96267.56;;;29.85;27.97
46724;BME280;32463;48.298;11.620;2023-07-22T11:29:35;96278.53;;;30.12;28.00
46724;BME280;32463;48.298;11.620;2023-07-22T11:32:02;96276.06;;;29.29;28.35
46724;BME280;32463;48.298;11.620;2023-07-22T11:34:29;96268.47;;;30.52;27.92
46724;BME280;32463;48.298;11.620;2023-07-22T11:36:56;96259.16;;;31.43;26.95
46724;BME280;32463;48.298;11.620;2023-07-22T11:39:25;96257.97;;;33.14;25.07
46724;BME280;32463;48.298;11.620;2023-07-22T11:41:52;96266.66;;;34.57;23.95
46724;BME280;32463;48.298;11.620;2023-07-22T11:44:20;96253.09;;;35.49;23.12
46724;BME280;32463;48.298;11.620;2023-07-22T11:47:08;96243.31;;;35.01;23.04
46724;BME280;32463;48.298;11.620;2023-07-22T11:49:36;96242.75;;;33.09;25.12
46724;BME280;32463;48.298;11.620;2023-07-22T11:52:05;96247.94;;;32.84;25.89
46724;BME280;32463;48.298;11.620;2023-07-22T11:54:33;96248.34;;;33.35;25.13
46724;BME280;32463;48.298;11.620;2023-07-22T12:02:16;96236.16;;;33.83;24.54
46724;BME280;32463;48.298;11.620;2023-07-22T12:04:43;96233.44;;;34.70;23.77
46724;BME280;32463;48.298;11.620;2023-07-22T12:07:27;96224.91;;;34.86;23.27
46724;BME280;32463;48.298;11.620;2023-07-22T12:09:55;96230.22;;;32.83;25.31
46724;BME280;32463;48.298;11.620;2023-07-22T12:12:35;96224.94;;;32.28;25.83
46724;BME280;32463;48.298;11.620;2023-07-22T12:15:10;96218.97;;;33.92;24.12
46724;BME280;32463;48.298;11.620;2023-07-22T12:17:54;96226.75;;;34.59;23.19
46724;BME280;32463;48.298;11.620;2023-07-22T12:20:25;96223.91;;;34.07;23.32
46724;BME280;32463;48.298;11.620;2023-07-22T12:22:53;96213.31;;;33.04;24.49
46724;BME280;32463;48.298;11.620;2023-07-22T12:25:20;96216.47;;;33.20;24.05
46724;BME280;32463;48.298;11.620;2023-07-22T12:27:46;96207.91;;;34.02;23.88
46724;BME280;32463;48.298;11.620;2023-07-22T12:30:13;96214.13;;;35.37;22.84
46724;BME280;32463;48.298;11.620;2023-07-22T12:32:40;96201.25;;;33.91;23.08
46724;BME280;32463;48.298;11.620;2023-07-22T12:35:07;96200.75;;;32.91;24.27
46724;BME280;32463;48.298;11.620;2023-07-22T12:37:34;96214.38;;;32.45;24.60
46724;BME280;32463;48.298;11.620;2023-07-22T12:40:01;96208.50;;;33.15;24.08
46724;BME280;32463;48.298;11.620;2023-07-22T12:42:31;96196.59;;;34.23;22.72
46724;BME280;32463;48.298;11.620;2023-07-22T12:44:57;96208.03;;;33.58;22.57
46724;BME280;32463;48.298;11.620;2023-07-22T12:47:23;96202.19;;;34.43;22.49
46724;BME280;32463;48.298;11.620;2023-07-22T12:49:50;96197.16;;;35.92;21.08
46724;BME280;32463;48.298;11.620;2023-07-22T12:52:17;96191.78;;;36.51;20.81
46724;BME280;32463;48.298;11.620;2023-07-22T12:54:43;96193.88;;;34.14;22.72
46724;BME280;32463;48.298;11.620;2023-07-22T12:57:10;96195.94;;;33.46;23.78
46724;BME280;32463;48.298;11.620;2023-07-22T12:59:36;96197.09;;;33.85;23.57
46724;BME280;32463;48.298;11.620;2023-07-22T13:02:03;96194.16;;;33.42;23.78
46724;BME280;32463;48.298;11.620;2023-07-22T13:04:29;96187.97;;;34.03;23.22
46724;BME280;32463;48.298;11.620;2023-07-22T13:06:56;96191.63;;;35.16;22.30
46724;BME280;32463;48.298;11.620;2023-07-22T13:09:23;96188.91;;;36.98;21.22